M I D A S
Marine Information and Data Acquisition System
Tripno 817 of the Zeeleeuw from 2004-12-10 08:16:39 to 2004-12-10 13:07:11
Back to CruiseResearch ActivitiesStationsMapUnderway DataData graphs

EquipmentUnitsComment
TimeDGPSUTC
LatitudeDGPSDM.mWGS84
LongitudeDGPSDM.mWGS84
HeadingGyrodeg 
SOGDGPSknotsSpeed over ground
COGDGPSdegCourse over ground
DepthEcho soundermeters200 kHz
Missing or incorrect values are displayed as -999
Navigation data collected by the RV Zeeleeuw from 2004-12-10 07:56:23 to 2004-12-10 12:17:53
Time Latitude Longitude Heading SOG COG Depth
2004-12-10 07:57:34 51°13.575 2°56.127 136.4 1.9 132 10.9
2004-12-10 07:58:45 51°13.557 2°56.164 131.5 0.9 125 10.9
2004-12-10 08:00:24 51°13.56 2°56.159 118.4 1.9 295 -999
2004-12-10 08:01:23 51°13.581 2°56.095 122.6 2.5 299 10.6
2004-12-10 08:02:50 51°13.593 2°56.076 91.6 1 81 10.8
2004-12-10 08:04:13 51°13.596 2°56.104 101.7 0.2 30 8.6
2004-12-10 08:05:13 51°13.597 2°56.107 111.2 0.1 97 8.6
2004-12-10 08:06:34 51°13.598 2°56.106 127 0.1 183 8.6
2004-12-10 08:07:33 51°13.598 2°56.106 127.4   222 8.6
2004-12-10 08:09:00 51°13.598 2°56.107 127.1   338 8.7
2004-12-10 08:10:57 51°13.599 2°56.108 127.1   225 8.7
2004-12-10 08:11:56 51°13.599 2°56.108 127.2   215 8.7
2004-12-10 08:12:56 51°13.599 2°56.107 127.2   137 8.8
2004-12-10 08:14:18 51°13.598 2°56.107 127.2   254 8.8
2004-12-10 08:15:50 51°13.598 2°56.107 127.3   217 8.8
2004-12-10 08:17:00 51°13.597 2°56.106 128.5   61 9
2004-12-10 08:18:12 51°13.597 2°56.106 121.8 0.2 188 8.8
2004-12-10 08:19:19 51°13.603 2°56.077 114.6 2.5 291 -999
2004-12-10 08:20:24 51°13.626 2°55.988 120.4 3.8 293 -999
2004-12-10 08:21:34 51°13.668 2°55.871 124.7 4.5 301 -999
2004-12-10 08:23:01 51°13.706 2°55.74 97.4 0.9 296 14.8
2004-12-10 08:24:18 51°13.707 2°55.746 38.2 1.6 214 -999
2004-12-10 08:25:22 51°13.73 2°55.74 341.1 2.9 341 12
2004-12-10 08:26:32 51°13.815 2°55.649 333.7 6.7 329 12.3
2004-12-10 08:28:00 51°13.98 2°55.521 340.9 8 337 12.1
2004-12-10 08:29:10 51°14.127 2°55.413 340.5 8.5 335 11.8
2004-12-10 08:30:14 51°14.26 2°55.263 322 10.1 317 12.6
2004-12-10 08:31:30 51°14.387 2°54.96 291.7 11.4 285 12
2004-12-10 08:32:50 51°14.408 2°54.517 272.3 13 268 12
2004-12-10 08:33:57 51°14.323 2°54.164 246.6 12.9 243 10.9
2004-12-10 08:35:10 51°14.191 2°53.803 240.5 13 237 10.8
2004-12-10 09:13:50 51°10.496 2°42.402 247.9 12.1 246 12.7